sensor_id;sensor_type;location;lat;lon;timestamp;temperature;humidity
2447;DHT22;26430;48.818;9.244;2023-07-31T00:02:16;17.50;99.90
2447;DHT22;26430;48.818;9.244;2023-07-31T00:04:41;17.60;99.90
2447;DHT22;26430;48.818;9.244;2023-07-31T00:07:07;17.70;99.90
2447;DHT22;26430;48.818;9.244;2023-07-31T00:09:33;17.80;99.90
2447;DHT22;26430;48.818;9.244;2023-07-31T00:11:59;17.40;99.90
2447;DHT22;26430;48.818;9.244;2023-07-31T00:14:25;17.30;99.90
2447;DHT22;26430;48.818;9.244;2023-07-31T00:16:50;17.10;99.90
2447;DHT22;26430;48.818;9.244;2023-07-31T00:19:16;17.00;99.90
2447;DHT22;26430;48.818;9.244;2023-07-31T00:21:41;17.00;99.90
2447;DHT22;26430;48.818;9.244;2023-07-31T00:24:07;16.80;99.90
2447;DHT22;26430;48.818;9.244;2023-07-31T00:26:32;16.60;99.90
2447;DHT22;26430;48.818;9.244;2023-07-31T00:28:58;16.60;99.90
2447;DHT22;26430;48.818;9.244;2023-07-31T00:31:23;16.60;99.90
2447;DHT22;26430;48.818;9.244;2023-07-31T00:33:49;16.50;99.90
2447;DHT22;26430;48.818;9.244;2023-07-31T00:36:15;16.50;99.90
2447;DHT22;26430;48.818;9.244;2023-07-31T00:38:40;16.50;99.90
2447;DHT22;26430;48.818;9.244;2023-07-31T00:41:06;16.50;99.90
2447;DHT22;26430;48.818;9.244;2023-07-31T00:43:31;16.50;99.90
2447;DHT22;26430;48.818;9.244;2023-07-31T00:45:57;16.70;99.90
2447;DHT22;26430;48.818;9.244;2023-07-31T00:48:23;16.70;99.90
2447;DHT22;26430;48.818;9.244;2023-07-31T00:50:49;16.60;99.90
2447;DHT22;26430;48.818;9.244;2023-07-31T00:53:15;16.80;99.90
2447;DHT22;26430;48.818;9.244;2023-07-31T00:55:41;16.70;99.90
2447;DHT22;26430;48.818;9.244;2023-07-31T00:58:07;16.60;99.90
2447;DHT22;26430;48.818;9.244;2023-07-31T01:00:33;16.70;99.90
2447;DHT22;26430;48.818;9.244;2023-07-31T01:02:58;16.50;99.90
2447;DHT22;26430;48.818;9.244;2023-07-31T01:05:38;16.50;99.90
2447;DHT22;26430;48.818;9.244;2023-07-31T01:08:15;16.40;99.90
2447;DHT22;26430;48.818;9.244;2023-07-31T01:10:50;16.10;99.90
2447;DHT22;26430;48.818;9.244;2023-07-31T01:13:17;16.10;99.90
2447;DHT22;26430;48.818;9.244;2023-07-31T01:15:43;16.40;99.90
2447;DHT22;26430;48.818;9.244;2023-07-31T01:18:09;16.50;99.90
2447;DHT22;26430;48.818;9.244;2023-07-31T01:20:35;16.60;99.90
2447;DHT22;26430;48.818;9.244;2023-07-31T01:26:09;16.60;99.90
2447;DHT22;26430;48.818;9.244;2023-07-31T01:28:45;16.90;99.90
2447;DHT22;26430;48.818;9.244;2023-07-31T01:31:16;17.10;99.90
2447;DHT22;26430;48.818;9.244;2023-07-31T01:33:41;17.10;99.90
2447;DHT22;26430;48.818;9.244;2023-07-31T01:36:08;16.90;99.90
2447;DHT22;26430;48.818;9.244;2023-07-31T01:38:33;16.80;99.90
2447;DHT22;26430;48.818;9.244;2023-07-31T01:40:59;16.60;99.90
2447;DHT22;26430;48.818;9.244;2023-07-31T01:43:25;16.30;99.90
2447;DHT22;26430;48.818;9.244;2023-07-31T01:45:50;16.10;99.90
2447;DHT22;26430;48.818;9.244;2023-07-31T01:48:16;16.00;99.90
2447;DHT22;26430;48.818;9.244;2023-07-31T01:50:41;15.90;99.90
2447;DHT22;26430;48.818;9.244;2023-07-31T01:53:07;16.00;99.90
2447;DHT22;26430;48.818;9.244;2023-07-31T01:55:32;16.00;99.90
2447;DHT22;26430;48.818;9.244;2023-07-31T01:57:58;16.00;99.90
2447;DHT22;26430;48.818;9.244;2023-07-31T02:00:24;16.00;99.90
2447;DHT22;26430;48.818;9.244;2023-07-31T02:02:49;16.00;99.90
2447;DHT22;26430;48.818;9.244;2023-07-31T02:05:15;15.80;99.90
2447;DHT22;26430;48.818;9.244;2023-07-31T02:07:40;15.80;99.90
2447;DHT22;26430;48.818;9.244;2023-07-31T02:10:06;15.90;99.90
2447;DHT22;26430;48.818;9.244;2023-07-31T02:12:32;16.10;99.90
2447;DHT22;26430;48.818;9.244;2023-07-31T02:14:59;15.90;99.90
2447;DHT22;26430;48.818;9.244;2023-07-31T02:17:24;15.90;99.90
2447;DHT22;26430;48.818;9.244;2023-07-31T02:19:50;15.80;99.90
2447;DHT22;26430;48.818;9.244;2023-07-31T02:22:15;15.80;99.90
2447;DHT22;26430;48.818;9.244;2023-07-31T02:24:41;15.80;99.90
2447;DHT22;26430;48.818;9.244;2023-07-31T02:27:07;15.70;99.90
2447;DHT22;26430;48.818;9.244;2023-07-31T02:29:32;15.70;99.90
2447;DHT22;26430;48.818;9.244;2023-07-31T02:31:58;15.60;99.90
2447;DHT22;26430;48.818;9.244;2023-07-31T02:34:23;15.70;99.90
2447;DHT22;26430;48.818;9.244;2023-07-31T02:36:49;15.60;99.90
2447;DHT22;26430;48.818;9.244;2023-07-31T02:39:14;15.60;99.90
2447;DHT22;26430;48.818;9.244;2023-07-31T02:41:40;15.70;99.90
2447;DHT22;26430;48.818;9.244;2023-07-31T02:44:05;15.60;99.90
2447;DHT22;26430;48.818;9.244;2023-07-31T02:46:31;15.70;99.90
2447;DHT22;26430;48.818;9.244;2023-07-31T02:48:57;15.70;99.90
2447;DHT22;26430;48.818;9.244;2023-07-31T02:51:22;15.70;99.90
2447;DHT22;26430;48.818;9.244;2023-07-31T02:53:48;15.60;99.90
2447;DHT22;26430;48.818;9.244;2023-07-31T02:56:14;15.60;99.90
2447;DHT22;26430;48.818;9.244;2023-07-31T02:58:39;15.50;99.90
2447;DHT22;26430;48.818;9.244;2023-07-31T03:01:05;15.70;99.90
2447;DHT22;26430;48.818;9.244;2023-07-31T03:03:30;15.70;99.90
2447;DHT22;26430;48.818;9.244;2023-07-31T03:05:56;15.60;99.90
2447;DHT22;26430;48.818;9.244;2023-07-31T03:08:21;15.70;99.90
2447;DHT22;26430;48.818;9.244;2023-07-31T03:10:47;15.60;99.90
2447;DHT22;26430;48.818;9.244;2023-07-31T03:13:12;15.60;99.90
2447;DHT22;26430;48.818;9.244;2023-07-31T03:15:38;15.60;99.90
2447;DHT22;26430;48.818;9.244;2023-07-31T03:18:07;15.50;99.90
2447;DHT22;26430;48.818;9.244;2023-07-31T03:20:32;15.50;99.90
2447;DHT22;26430;48.818;9.244;2023-07-31T03:22:58;15.40;99.90
2447;DHT22;26430;48.818;9.244;2023-07-31T03:25:23;15.60;99.90
2447;DHT22;26430;48.818;9.244;2023-07-31T03:27:49;15.60;99.90
2447;DHT22;26430;48.818;9.244;2023-07-31T03:30:14;15.60;99.90
2447;DHT22;26430;48.818;9.244;2023-07-31T03:32:40;15.50;99.90
2447;DHT22;26430;48.818;9.244;2023-07-31T03:35:06;15.60;99.90
2447;DHT22;26430;48.818;9.244;2023-07-31T03:37:31;15.40;99.90
2447;DHT22;26430;48.818;9.244;2023-07-31T03:39:57;15.40;99.90
2447;DHT22;26430;48.818;9.244;2023-07-31T03:42:22;15.30;99.90
2447;DHT22;26430;48.818;9.244;2023-07-31T03:44:48;15.30;99.90
2447;DHT22;26430;48.818;9.244;2023-07-31T03:47:13;15.40;99.90
2447;DHT22;26430;48.818;9.244;2023-07-31T03:49:39;15.50;99.90
2447;DHT22;26430;48.818;9.244;2023-07-31T03:52:05;15.50;99.90
2447;DHT22;26430;48.818;9.244;2023-07-31T03:54:31;15.60;99.90
2447;DHT22;26430;48.818;9.244;2023-07-31T03:56:57;15.70;99.90
2447;DHT22;26430;48.818;9.244;2023-07-31T03:59:22;15.90;99.90
2447;DHT22;26430;48.818;9.244;2023-07-31T04:01:48;15.90;99.90
2447;DHT22;26430;48.818;9.244;2023-07-31T04:04:13;16.10;99.90
2447;DHT22;26430;48.818;9.244;2023-07-31T04:06:39;16.00;99.90
2447;DHT22;26430;48.818;9.244;2023-07-31T04:09:04;15.90;99.90
2447;DHT22;26430;48.818;9.244;2023-07-31T04:11:30;16.10;99.90
2447;DHT22;26430;48.818;9.244;2023-07-31T04:13:56;15.90;99.90
2447;DHT22;26430;48.818;9.244;2023-07-31T04:16:21;15.80;99.90
2447;DHT22;26430;48.818;9.244;2023-07-31T04:18:47;15.90;99.90
2447;DHT22;26430;48.818;9.244;2023-07-31T04:21:12;16.00;99.90
2447;DHT22;26430;48.818;9.244;2023-07-31T04:23:38;16.10;99.90
2447;DHT22;26430;48.818;9.244;2023-07-31T04:26:03;16.10;99.90
2447;DHT22;26430;48.818;9.244;2023-07-31T04:28:29;16.20;99.90
2447;DHT22;26430;48.818;9.244;2023-07-31T04:30:57;16.20;99.90
2447;DHT22;26430;48.818;9.244;2023-07-31T04:33:22;16.20;99.90
2447;DHT22;26430;48.818;9.244;2023-07-31T04:35:52;16.30;99.90
2447;DHT22;26430;48.818;9.244;2023-07-31T04:38:19;16.30;99.90
2447;DHT22;26430;48.818;9.244;2023-07-31T04:40:45;16.40;99.90
2447;DHT22;26430;48.818;9.244;2023-07-31T04:43:10;16.40;99.90
2447;DHT22;26430;48.818;9.244;2023-07-31T04:45:36;16.40;99.90
2447;DHT22;26430;48.818;9.244;2023-07-31T04:48:01;16.40;99.90
2447;DHT22;26430;48.818;9.244;2023-07-31T04:50:27;16.50;99.90
2447;DHT22;26430;48.818;9.244;2023-07-31T04:52:52;16.40;99.90
2447;DHT22;26430;48.818;9.244;2023-07-31T04:55:18;16.40;99.90
2447;DHT22;26430;48.818;9.244;2023-07-31T04:57:43;16.50;99.90
2447;DHT22;26430;48.818;9.244;2023-07-31T05:00:09;16.50;99.90
2447;DHT22;26430;48.818;9.244;2023-07-31T05:02:35;16.60;99.90
2447;DHT22;26430;48.818;9.244;2023-07-31T05:05:00;16.50;99.90
2447;DHT22;26430;48.818;9.244;2023-07-31T05:07:26;16.60;99.90
2447;DHT22;26430;48.818;9.244;2023-07-31T05:09:52;16.70;99.90
2447;DHT22;26430;48.818;9.244;2023-07-31T05:12:17;16.50;99.90
2447;DHT22;26430;48.818;9.244;2023-07-31T05:14:43;16.40;99.90
2447;DHT22;26430;48.818;9.244;2023-07-31T05:17:08;16.30;99.90
2447;DHT22;26430;48.818;9.244;2023-07-31T05:19:34;16.30;99.90
2447;DHT22;26430;48.818;9.244;2023-07-31T05:21:59;16.30;99.90
2447;DHT22;26430;48.818;9.244;2023-07-31T05:24:25;16.20;99.90
2447;DHT22;26430;48.818;9.244;2023-07-31T05:26:50;16.20;99.90
2447;DHT22;26430;48.818;9.244;2023-07-31T05:29:16;16.30;99.90
2447;DHT22;26430;48.818;9.244;2023-07-31T05:31:42;16.20;99.90
2447;DHT22;26430;48.818;9.244;2023-07-31T05:34:07;16.30;99.90
2447;DHT22;26430;48.818;9.244;2023-07-31T05:36:33;16.30;99.90
2447;DHT22;26430;48.818;9.244;2023-07-31T05:38:58;16.30;99.90
2447;DHT22;26430;48.818;9.244;2023-07-31T05:41:24;16.30;99.90
2447;DHT22;26430;48.818;9.244;2023-07-31T05:43:49;16.30;99.90
2447;DHT22;26430;48.818;9.244;2023-07-31T05:46:16;16.40;99.90
2447;DHT22;26430;48.818;9.244;2023-07-31T05:48:42;16.50;99.90
2447;DHT22;26430;48.818;9.244;2023-07-31T05:51:07;16.50;99.90
2447;DHT22;26430;48.818;9.244;2023-07-31T05:53:33;16.60;99.90
2447;DHT22;26430;48.818;9.244;2023-07-31T05:55:58;16.70;99.90
2447;DHT22;26430;48.818;9.244;2023-07-31T05:58:24;16.70;99.90
2447;DHT22;26430;48.818;9.244;2023-07-31T06:00:49;16.80;99.90
2447;DHT22;26430;48.818;9.244;2023-07-31T06:03:15;16.80;99.90
2447;DHT22;26430;48.818;9.244;2023-07-31T06:05:40;16.90;99.90
2447;DHT22;26430;48.818;9.244;2023-07-31T06:08:06;17.00;99.90
2447;DHT22;26430;48.818;9.244;2023-07-31T06:10:32;17.10;99.90
2447;DHT22;26430;48.818;9.244;2023-07-31T06:12:57;17.20;99.90
2447;DHT22;26430;48.818;9.244;2023-07-31T06:15:23;17.30;99.90
2447;DHT22;26430;48.818;9.244;2023-07-31T06:17:48;17.30;99.90
2447;DHT22;26430;48.818;9.244;2023-07-31T06:20:14;17.50;99.90
2447;DHT22;26430;48.818;9.244;2023-07-31T06:22:39;17.60;99.90
2447;DHT22;26430;48.818;9.244;2023-07-31T06:25:05;17.70;99.90
2447;DHT22;26430;48.818;9.244;2023-07-31T06:27:31;17.80;99.90
2447;DHT22;26430;48.818;9.244;2023-07-31T06:29:57;17.80;99.90
2447;DHT22;26430;48.818;9.244;2023-07-31T06:32:23;17.80;99.90
2447;DHT22;26430;48.818;9.244;2023-07-31T06:34:48;17.90;99.90
2447;DHT22;26430;48.818;9.244;2023-07-31T06:37:14;18.10;99.90
2447;DHT22;26430;48.818;9.244;2023-07-31T06:39:39;18.20;99.90
2447;DHT22;26430;48.818;9.244;2023-07-31T06:42:05;18.30;99.90
2447;DHT22;26430;48.818;9.244;2023-07-31T06:44:30;18.40;99.90
2447;DHT22;26430;48.818;9.244;2023-07-31T06:46:56;18.50;99.90
2447;DHT22;26430;48.818;9.244;2023-07-31T06:49:22;18.60;99.90
2447;DHT22;26430;48.818;9.244;2023-07-31T06:51:47;18.50;99.90
2447;DHT22;26430;48.818;9.244;2023-07-31T06:54:13;18.50;99.90
2447;DHT22;26430;48.818;9.244;2023-07-31T06:56:38;18.60;99.90
2447;DHT22;26430;48.818;9.244;2023-07-31T06:59:04;18.80;99.90
2447;DHT22;26430;48.818;9.244;2023-07-31T07:01:29;18.90;99.90
2447;DHT22;26430;48.818;9.244;2023-07-31T07:03:55;18.80;99.90
2447;DHT22;26430;48.818;9.244;2023-07-31T07:06:22;18.80;99.90
2447;DHT22;26430;48.818;9.244;2023-07-31T07:08:48;18.90;99.90
2447;DHT22;26430;48.818;9.244;2023-07-31T07:11:13;18.90;99.90
2447;DHT22;26430;48.818;9.244;2023-07-31T07:13:39;19.00;99.90
2447;DHT22;26430;48.818;9.244;2023-07-31T07:16:04;19.10;99.90
2447;DHT22;26430;48.818;9.244;2023-07-31T07:18:30;19.20;99.90
2447;DHT22;26430;48.818;9.244;2023-07-31T07:20:56;19.30;99.90
2447;DHT22;26430;48.818;9.244;2023-07-31T07:23:23;19.30;99.90
2447;DHT22;26430;48.818;9.244;2023-07-31T07:25:49;19.40;99.90
2447;DHT22;26430;48.818;9.244;2023-07-31T07:28:15;19.40;99.90
2447;DHT22;26430;48.818;9.244;2023-07-31T07:30:40;19.40;99.90
2447;DHT22;26430;48.818;9.244;2023-07-31T07:33:06;19.50;99.90
2447;DHT22;26430;48.818;9.244;2023-07-31T07:35:35;19.50;99.90
2447;DHT22;26430;48.818;9.244;2023-07-31T07:38:04;19.50;99.90
2447;DHT22;26430;48.818;9.244;2023-07-31T07:40:29;19.60;99.90
2447;DHT22;26430;48.818;9.244;2023-07-31T07:42:55;19.50;99.90
2447;DHT22;26430;48.818;9.244;2023-07-31T07:45:21;19.50;99.90
2447;DHT22;26430;48.818;9.244;2023-07-31T07:47:46;19.40;99.90
2447;DHT22;26430;48.818;9.244;2023-07-31T07:50:12;19.30;99.90
2447;DHT22;26430;48.818;9.244;2023-07-31T07:52:37;19.30;99.90
2447;DHT22;26430;48.818;9.244;2023-07-31T07:55:03;19.50;99.90
2447;DHT22;26430;48.818;9.244;2023-07-31T07:57:29;19.70;99.90
2447;DHT22;26430;48.818;9.244;2023-07-31T07:59:54;19.70;99.90
2447;DHT22;26430;48.818;9.244;2023-07-31T08:02:20;19.60;99.90
2447;DHT22;26430;48.818;9.244;2023-07-31T08:04:46;19.70;99.90
2447;DHT22;26430;48.818;9.244;2023-07-31T08:07:12;19.70;99.90
2447;DHT22;26430;48.818;9.244;2023-07-31T08:09:38;19.80;99.90
2447;DHT22;26430;48.818;9.244;2023-07-31T08:12:04;19.90;99.90
2447;DHT22;26430;48.818;9.244;2023-07-31T08:14:30;20.00;99.90
2447;DHT22;26430;48.818;9.244;2023-07-31T08:16:56;20.00;99.90
2447;DHT22;26430;48.818;9.244;2023-07-31T08:19:21;19.80;99.90
2447;DHT22;26430;48.818;9.244;2023-07-31T08:21:47;20.00;99.90
2447;DHT22;26430;48.818;9.244;2023-07-31T08:24:12;20.10;99.90
2447;DHT22;26430;48.818;9.244;2023-07-31T08:26:38;20.10;99.90
2447;DHT22;26430;48.818;9.244;2023-07-31T08:29:04;20.10;99.90
2447;DHT22;26430;48.818;9.244;2023-07-31T08:31:29;19.90;99.90
2447;DHT22;26430;48.818;9.244;2023-07-31T08:33:56;19.90;99.90
2447;DHT22;26430;48.818;9.244;2023-07-31T08:36:21;20.00;99.90
2447;DHT22;26430;48.818;9.244;2023-07-31T08:38:47;20.30;99.90
2447;DHT22;26430;48.818;9.244;2023-07-31T08:41:13;20.30;99.90
2447;DHT22;26430;48.818;9.244;2023-07-31T08:43:39;20.20;99.90
2447;DHT22;26430;48.818;9.244;2023-07-31T08:46:05;20.20;99.90
2447;DHT22;26430;48.818;9.244;2023-07-31T08:48:31;20.10;99.90
2447;DHT22;26430;48.818;9.244;2023-07-31T08:50:57;20.30;99.90
2447;DHT22;26430;48.818;9.244;2023-07-31T08:53:23;20.50;99.90
2447;DHT22;26430;48.818;9.244;2023-07-31T08:55:49;20.50;99.90
2447;DHT22;26430;48.818;9.244;2023-07-31T08:58:15;20.60;99.90
2447;DHT22;26430;48.818;9.244;2023-07-31T09:00:41;20.50;99.90
2447;DHT22;26430;48.818;9.244;2023-07-31T09:03:13;20.70;99.90
2447;DHT22;26430;48.818;9.244;2023-07-31T09:05:42;20.70;99.90
2447;DHT22;26430;48.818;9.244;2023-07-31T09:08:09;20.70;99.90
2447;DHT22;26430;48.818;9.244;2023-07-31T09:10:43;20.60;99.90
2447;DHT22;26430;48.818;9.244;2023-07-31T09:13:09;20.70;99.90
2447;DHT22;26430;48.818;9.244;2023-07-31T09:15:36;20.70;99.90
2447;DHT22;26430;48.818;9.244;2023-07-31T09:18:03;20.80;99.90
2447;DHT22;26430;48.818;9.244;2023-07-31T09:20:29;21.00;99.90
2447;DHT22;26430;48.818;9.244;2023-07-31T09:22:55;21.00;99.90
2447;DHT22;26430;48.818;9.244;2023-07-31T09:25:23;21.10;99.90
2447;DHT22;26430;48.818;9.244;2023-07-31T09:27:50;21.50;99.90
2447;DHT22;26430;48.818;9.244;2023-07-31T09:30:17;21.50;99.90
2447;DHT22;26430;48.818;9.244;2023-07-31T09:32:44;21.50;99.90
2447;DHT22;26430;48.818;9.244;2023-07-31T09:35:21;21.40;99.90
2447;DHT22;26430;48.818;9.244;2023-07-31T09:37:51;21.40;99.90
2447;DHT22;26430;48.818;9.244;2023-07-31T09:43:00;21.20;99.90
2447;DHT22;26430;48.818;9.244;2023-07-31T09:45:26;21.10;99.90
2447;DHT22;26430;48.818;9.244;2023-07-31T09:47:52;20.70;99.90
2447;DHT22;26430;48.818;9.244;2023-07-31T09:50:20;20.70;99.90
2447;DHT22;26430;48.818;9.244;2023-07-31T09:52:45;20.60;99.90
2447;DHT22;26430;48.818;9.244;2023-07-31T09:55:11;20.70;99.90
2447;DHT22;26430;48.818;9.244;2023-07-31T09:57:40;21.10;99.90
2447;DHT22;26430;48.818;9.244;2023-07-31T10:00:07;20.90;99.90
2447;DHT22;26430;48.818;9.244;2023-07-31T10:02:34;20.90;99.90
2447;DHT22;26430;48.818;9.244;2023-07-31T10:05:02;21.00;99.90
2447;DHT22;26430;48.818;9.244;2023-07-31T10:07:30;21.40;99.90
2447;DHT22;26430;48.818;9.244;2023-07-31T10:09:58;21.30;99.90
2447;DHT22;26430;48.818;9.244;2023-07-31T10:12:26;20.70;99.90
2447;DHT22;26430;48.818;9.244;2023-07-31T10:14:55;20.80;99.90
2447;DHT22;26430;48.818;9.244;2023-07-31T10:17:22;21.20;99.90
2447;DHT22;26430;48.818;9.244;2023-07-31T10:19:49;21.00;99.90
2447;DHT22;26430;48.818;9.244;2023-07-31T10:22:15;21.20;99.90
2447;DHT22;26430;48.818;9.244;2023-07-31T10:24:45;21.20;99.90
2447;DHT22;26430;48.818;9.244;2023-07-31T10:27:11;21.20;99.90
2447;DHT22;26430;48.818;9.244;2023-07-31T10:29:38;21.30;99.90
2447;DHT22;26430;48.818;9.244;2023-07-31T10:32:06;21.20;99.90
2447;DHT22;26430;48.818;9.244;2023-07-31T10:34:34;21.40;99.90
2447;DHT22;26430;48.818;9.244;2023-07-31T10:37:40;21.40;99.90
2447;DHT22;26430;48.818;9.244;2023-07-31T10:40:11;21.70;99.90
2447;DHT22;26430;48.818;9.244;2023-07-31T10:42:48;21.70;99.90
2447;DHT22;26430;48.818;9.244;2023-07-31T10:45:44;21.70;99.90
2447;DHT22;26430;48.818;9.244;2023-07-31T10:48:16;21.70;99.90
2447;DHT22;26430;48.818;9.244;2023-07-31T10:50:48;21.80;99.90
2447;DHT22;26430;48.818;9.244;2023-07-31T10:53:28;21.70;99.90
2447;DHT22;26430;48.818;9.244;2023-07-31T10:55:58;21.70;99.90
2447;DHT22;26430;48.818;9.244;2023-07-31T10:58:24;21.80;99.90
2447;DHT22;26430;48.818;9.244;2023-07-31T11:00:55;22.00;99.90
2447;DHT22;26430;48.818;9.244;2023-07-31T11:03:25;22.00;99.90
2447;DHT22;26430;48.818;9.244;2023-07-31T11:08:35;22.10;99.90
2447;DHT22;26430;48.818;9.244;2023-07-31T11:11:04;22.90;99.90
2447;DHT22;26430;48.818;9.244;2023-07-31T11:13:48;22.70;99.90
2447;DHT22;26430;48.818;9.244;2023-07-31T11:16:15;22.70;99.90
2447;DHT22;26430;48.818;9.244;2023-07-31T11:18:45;22.80;99.90
2447;DHT22;26430;48.818;9.244;2023-07-31T11:21:14;22.90;99.90
2447;DHT22;26430;48.818;9.244;2023-07-31T11:23:41;22.70;99.90
2447;DHT22;26430;48.818;9.244;2023-07-31T11:26:07;23.00;99.90
2447;DHT22;26430;48.818;9.244;2023-07-31T11:28:34;22.90;99.90
2447;DHT22;26430;48.818;9.244;2023-07-31T11:31:01;22.90;99.90
2447;DHT22;26430;48.818;9.244;2023-07-31T11:33:26;23.70;99.90
2447;DHT22;26430;48.818;9.244;2023-07-31T11:35:52;23.80;99.90
2447;DHT22;26430;48.818;9.244;2023-07-31T11:38:27;24.00;99.90
2447;DHT22;26430;48.818;9.244;2023-07-31T11:40:54;23.60;99.90
2447;DHT22;26430;48.818;9.244;2023-07-31T11:43:21;23.30;99.90
2447;DHT22;26430;48.818;9.244;2023-07-31T11:45:49;23.20;99.90
2447;DHT22;26430;48.818;9.244;2023-07-31T11:48:19;23.00;99.90
2447;DHT22;26430;48.818;9.244;2023-07-31T11:50:46;22.20;99.90
2447;DHT22;26430;48.818;9.244;2023-07-31T11:53:12;22.40;99.90
2447;DHT22;26430;48.818;9.244;2023-07-31T11:55:38;22.40;99.90
2447;DHT22;26430;48.818;9.244;2023-07-31T11:58:04;22.50;99.90
2447;DHT22;26430;48.818;9.244;2023-07-31T12:00:30;22.70;99.90
2447;DHT22;26430;48.818;9.244;2023-07-31T12:02:56;22.80;99.90
2447;DHT22;26430;48.818;9.244;2023-07-31T12:05:22;22.70;99.90
2447;DHT22;26430;48.818;9.244;2023-07-31T12:07:53;22.50;99.90
2447;DHT22;26430;48.818;9.244;2023-07-31T12:13:25;22.30;99.90
2447;DHT22;26430;48.818;9.244;2023-07-31T12:16:01;22.30;99.90
2447;DHT22;26430;48.818;9.244;2023-07-31T12:18:29;22.20;99.90
2447;DHT22;26430;48.818;9.244;2023-07-31T12:20:56;22.20;99.90
2447;DHT22;26430;48.818;9.244;2023-07-31T12:23:29;22.40;99.90
2447;DHT22;26430;48.818;9.244;2023-07-31T12:26:14;22.40;99.90
2447;DHT22;26430;48.818;9.244;2023-07-31T12:28:45;22.30;99.90
2447;DHT22;26430;48.818;9.244;2023-07-31T12:31:15;22.20;99.90
2447;DHT22;26430;48.818;9.244;2023-07-31T12:33:45;22.40;99.90
2447;DHT22;26430;48.818;9.244;2023-07-31T12:36:14;22.60;99.90
2447;DHT22;26430;48.818;9.244;2023-07-31T12:38:40;22.70;99.90
2447;DHT22;26430;48.818;9.244;2023-07-31T12:41:06;22.50;99.90
2447;DHT22;26430;48.818;9.244;2023-07-31T12:43:35;22.40;99.90
2447;DHT22;26430;48.818;9.244;2023-07-31T12:46:01;22.40;99.90
2447;DHT22;26430;48.818;9.244;2023-07-31T12:48:27;22.40;99.90
2447;DHT22;26430;48.818;9.244;2023-07-31T12:50:52;22.40;99.90
2447;DHT22;26430;48.818;9.244;2023-07-31T12:53:18;22.20;99.90
2447;DHT22;26430;48.818;9.244;2023-07-31T12:55:43;22.20;99.90
2447;DHT22;26430;48.818;9.244;2023-07-31T12:58:09;22.20;99.90
2447;DHT22;26430;48.818;9.244;2023-07-31T13:00:35;22.20;99.90
2447;DHT22;26430;48.818;9.244;2023-07-31T13:03:01;22.10;99.90
2447;DHT22;26430;48.818;9.244;2023-07-31T13:05:27;22.10;99.90
2447;DHT22;26430;48.818;9.244;2023-07-31T13:07:53;22.10;99.90
2447;DHT22;26430;48.818;9.244;2023-07-31T13:10:19;22.00;99.90
2447;DHT22;26430;48.818;9.244;2023-07-31T13:12:45;22.00;99.90
2447;DHT22;26430;48.818;9.244;2023-07-31T13:15:11;21.90;99.90
2447;DHT22;26430;48.818;9.244;2023-07-31T13:17:37;21.90;99.90
2447;DHT22;26430;48.818;9.244;2023-07-31T13:20:03;21.90;99.90
2447;DHT22;26430;48.818;9.244;2023-07-31T13:22:30;22.00;99.90
2447;DHT22;26430;48.818;9.244;2023-07-31T13:24:55;22.00;99.90
2447;DHT22;26430;48.818;9.244;2023-07-31T13:27:21;22.10;99.90
2447;DHT22;26430;48.818;9.244;2023-07-31T13:29:53;22.10;99.90
2447;DHT22;26430;48.818;9.244;2023-07-31T13:32:19;22.10;99.90
2447;DHT22;26430;48.818;9.244;2023-07-31T13:34:45;22.20;99.90
2447;DHT22;26430;48.818;9.244;2023-07-31T13:37:11;22.40;99.90
2447;DHT22;26430;48.818;9.244;2023-07-31T13:39:37;22.50;99.90
2447;DHT22;26430;48.818;9.244;2023-07-31T13:42:03;22.70;99.90
2447;DHT22;26430;48.818;9.244;2023-07-31T13:44:32;22.70;99.90
2447;DHT22;26430;48.818;9.244;2023-07-31T13:46:58;22.50;99.90
2447;DHT22;26430;48.818;9.244;2023-07-31T13:49:23;22.80;99.90
2447;DHT22;26430;48.818;9.244;2023-07-31T13:51:49;22.90;99.90
2447;DHT22;26430;48.818;9.244;2023-07-31T13:54:15;22.90;99.90
2447;DHT22;26430;48.818;9.244;2023-07-31T13:56:41;22.90;99.90
2447;DHT22;26430;48.818;9.244;2023-07-31T13:59:06;23.00;99.90
2447;DHT22;26430;48.818;9.244;2023-07-31T14:01:32;23.00;99.90
2447;DHT22;26430;48.818;9.244;2023-07-31T14:03:58;23.00;99.90
2447;DHT22;26430;48.818;9.244;2023-07-31T14:06:23;23.00;99.90
2447;DHT22;26430;48.818;9.244;2023-07-31T14:08:49;23.00;99.90
2447;DHT22;26430;48.818;9.244;2023-07-31T14:11:14;23.00;99.90
2447;DHT22;26430;48.818;9.244;2023-07-31T14:13:40;23.00;99.90
2447;DHT22;26430;48.818;9.244;2023-07-31T14:16:06;23.10;99.90
2447;DHT22;26430;48.818;9.244;2023-07-31T14:18:32;23.20;99.90
2447;DHT22;26430;48.818;9.244;2023-07-31T14:20:57;23.10;99.90
2447;DHT22;26430;48.818;9.244;2023-07-31T14:23:23;23.10;99.90
2447;DHT22;26430;48.818;9.244;2023-07-31T14:25:48;23.20;99.90
2447;DHT22;26430;48.818;9.244;2023-07-31T14:28:14;23.20;99.90
2447;DHT22;26430;48.818;9.244;2023-07-31T14:30:39;23.30;99.90
2447;DHT22;26430;48.818;9.244;2023-07-31T14:33:05;23.50;99.90
2447;DHT22;26430;48.818;9.244;2023-07-31T14:35:31;23.50;99.90
2447;DHT22;26430;48.818;9.244;2023-07-31T14:37:56;23.80;99.90
2447;DHT22;26430;48.818;9.244;2023-07-31T14:40:22;23.90;99.90
2447;DHT22;26430;48.818;9.244;2023-07-31T14:42:47;23.70;99.90
2447;DHT22;26430;48.818;9.244;2023-07-31T14:45:13;23.50;99.90
2447;DHT22;26430;48.818;9.244;2023-07-31T14:47:39;23.60;99.90
2447;DHT22;26430;48.818;9.244;2023-07-31T14:50:05;23.60;99.90
2447;DHT22;26430;48.818;9.244;2023-07-31T14:52:30;23.60;99.90
2447;DHT22;26430;48.818;9.244;2023-07-31T14:54:56;23.40;99.90
2447;DHT22;26430;48.818;9.244;2023-07-31T14:57:22;23.70;99.90
2447;DHT22;26430;48.818;9.244;2023-07-31T14:59:47;23.80;99.90
2447;DHT22;26430;48.818;9.244;2023-07-31T15:02:15;24.10;99.90
2447;DHT22;26430;48.818;9.244;2023-07-31T15:04:41;24.00;99.90
2447;DHT22;26430;48.818;9.244;2023-07-31T15:07:07;23.80;99.90
2447;DHT22;26430;48.818;9.244;2023-07-31T15:09:32;23.80;99.90
2447;DHT22;26430;48.818;9.244;2023-07-31T15:11:58;23.90;99.90
2447;DHT22;26430;48.818;9.244;2023-07-31T15:14:24;23.80;99.90
2447;DHT22;26430;48.818;9.244;2023-07-31T15:16:50;23.70;99.90
2447;DHT22;26430;48.818;9.244;2023-07-31T15:19:16;23.90;99.90
2447;DHT22;26430;48.818;9.244;2023-07-31T15:21:42;23.80;99.90
2447;DHT22;26430;48.818;9.244;2023-07-31T15:24:07;23.90;99.90
2447;DHT22;26430;48.818;9.244;2023-07-31T15:26:33;23.80;99.90
2447;DHT22;26430;48.818;9.244;2023-07-31T15:29:04;23.70;99.90
2447;DHT22;26430;48.818;9.244;2023-07-31T15:31:34;23.80;99.90
2447;DHT22;26430;48.818;9.244;2023-07-31T15:33:59;23.90;99.90
2447;DHT22;26430;48.818;9.244;2023-07-31T15:36:25;24.20;99.90
2447;DHT22;26430;48.818;9.244;2023-07-31T15:38:50;24.00;99.90
2447;DHT22;26430;48.818;9.244;2023-07-31T15:41:17;24.30;99.90
2447;DHT22;26430;48.818;9.244;2023-07-31T15:43:43;24.30;99.90
2447;DHT22;26430;48.818;9.244;2023-07-31T15:46:09;24.20;99.90
2447;DHT22;26430;48.818;9.244;2023-07-31T15:48:34;24.40;99.90
2447;DHT22;26430;48.818;9.244;2023-07-31T15:51:00;24.20;99.90
2447;DHT22;26430;48.818;9.244;2023-07-31T15:53:27;24.30;99.90